Airfield :
LOGIN :

Register | Disclaimer

   EN    FR    IT 

 










Legend :    VFR   Marginal VFR   IFR   Intensive IFR   Very Intensive IFR
Visi :
Ceiling :
>= 8 km
>= 3000ft
5 to 8 km
1000 to 3000 ft
1500m to 5 km
500 to 1000 ft
800 to 1500m
200 to 500 ft
< 800m
< 200 ft
Symbols :   Thunderstorms  Fog  Heavy snow  Heavy precipitations  Wind > 20 kt
SIGMETs :     Misc.  Thunderstorms  Icing  Turbulence  Mountain Waves  Volcanic Ashes






- Airport Elevation : 327 ft
- IATA code : BHX


EGBB - Birmingham

CURRENT METAR :
  • 022150Z 31008KT CAVOK 20/08 Q1014

EXPIRED METARs :
  • 022120Z 32006KT CAVOK 20/07 Q1014
  • 022050Z 32007KT CAVOK 20/07 Q1015
  • 022020Z 32009KT CAVOK 21/06 Q1015
  • 021950Z 32010KT CAVOK 22/05 Q1015
  • 021920Z 32011KT CAVOK 23/06 Q1015

TAF TAF EGBB
Valid from the 02 at 18:00 until the 03 at 18:00 UTC


021654Z 0218/0318 32005KT 9999 FEW040
TEMPO 0301/0318 6000 RA BKN012
PROB30
TEMPO 0304/0315 4000 +RA BKN007
BECMG 0309/0312 02012KT
ATIS : +44 121 780 0910



MET'MAP, your aeronautical weather chart ! - Copyright ORBIFLY December 2007 - Disclaimer

ORBIFLY MET'MAP TEAM :

Programming & Development : Alexandra Zaïnal
Concept & original design : Baudouin d'Aumeries
Assistance for programming : Marc-Olivier Méhu
Technical & hardware support : Manuel Goepfert

Contact : metmap@orbifly.com




SOURCES & CREDITS :

   NOAA